Time;durP1;ratioP1;P1;durP2;ratioP2;P2;SDS_P1;SDS_P2;PMS_P1;PMS_P2;Temp;Humidity;BMP_temperature;BMP_pressure;BME280_temperature;BME280_humidity;BME280_pressure;Samples;Min_cycle;Max_cycle;Signal;HPM_P1;HPM_P2
2022/09/27 00:00:32;;;;;;;7.85;4.82;;;13.50;99.90;;;;;;5031223;28;20078;-79
2022/09/27 00:02:58;;;;;;;10.45;5.32;;;13.50;99.90;;;;;;5038904;28;20091;-79
2022/09/27 00:05:24;;;;;;;10.68;5.45;;;13.50;99.90;;;;;;5039039;28;20055;-77
2022/09/27 00:07:50;;;;;;;8.07;5.07;;;13.50;99.90;;;;;;5039127;28;20117;-79
2022/09/27 00:10:16;;;;;;;9.13;5.47;;;13.40;99.90;;;;;;5033252;28;20022;-78
2022/09/27 00:12:42;;;;;;;9.02;4.90;;;13.50;99.90;;;;;;5040815;28;20064;-79
2022/09/27 00:15:11;;;;;;;9.23;6.00;;;13.50;99.90;;;;;;5048090;28;20560;-78
2022/09/27 00:17:37;;;;;;;7.20;4.72;;;13.50;99.90;;;;;;5046472;28;20033;-77
2022/09/27 00:20:05;;;;;;;11.20;4.93;;;13.50;99.90;;;;;;5047119;28;20049;-78
2022/09/27 00:22:31;;;;;;;10.43;5.35;;;13.50;99.90;;;;;;5047737;28;20025;-78
2022/09/27 00:24:57;;;;;;;6.80;4.55;;;13.40;99.90;;;;;;5044816;28;20021;-78
2022/09/27 00:27:25;;;;;;;6.75;5.05;;;13.40;99.90;;;;;;5047462;28;20033;-78
2022/09/27 00:29:51;;;;;;;8.43;5.30;;;13.40;99.90;;;;;;5044948;28;20022;-78
2022/09/27 00:32:17;;;;;;;6.80;4.95;;;13.30;99.90;;;;;;5048110;28;20033;-78
2022/09/27 00:34:44;;;;;;;9.15;5.60;;;13.30;99.90;;;;;;5048311;28;20006;-78
2022/09/27 00:37:10;;;;;;;9.02;5.35;;;13.30;99.90;;;;;;5043492;28;20065;-80
2022/09/27 00:39:40;;;;;;;7.80;4.93;;;13.30;99.90;;;;;;5037514;28;20026;-77
2022/09/27 00:42:10;;;;;;;7.95;4.97;;;13.30;99.90;;;;;;5045904;28;20029;-78
2022/09/27 00:44:40;;;;;;;6.25;4.57;;;13.30;99.90;;;;;;5042324;28;20083;-79
2022/09/27 00:47:28;;;;;;;7.72;4.85;;;13.30;99.90;;;;;;5042094;28;20025;-77
2022/09/27 00:50:10;;;;;;;8.15;5.20;;;13.20;99.90;;;;;;5045683;28;20048;-77
2022/09/27 00:53:01;;;;;;;9.63;5.45;;;13.20;99.90;;;;;;5044815;28;20052;-77
2022/09/27 00:55:33;;;;;;;6.57;4.85;;;13.10;99.90;;;;;;5044578;28;20021;-77
2022/09/27 00:58:01;;;;;;;8.60;4.95;;;13.10;99.90;;;;;;5039500;28;20035;-76
2022/09/27 01:00:27;;;;;;;8.55;5.50;;;13.00;99.90;;;;;;5042690;28;20079;-78
2022/09/27 01:02:55;;;;;;;5.88;4.57;;;13.00;99.90;;;;;;5063541;22;20140;-83
2022/09/27 01:05:25;;;;;;;7.97;5.32;;;13.00;99.90;;;;;;5044083;28;20017;-86
2022/09/27 01:07:55;;;;;;;8.73;5.10;;;12.90;99.90;;;;;;5066312;28;20048;-86
2022/09/27 01:10:24;;;;;;;7.80;5.30;;;12.90;99.90;;;;;;5087682;28;20020;-84
2022/09/27 01:13:16;;;;;;;6.30;5.05;;;12.90;99.90;;;;;;5058397;28;20133;-85
2022/09/27 01:15:47;;;;;;;8.32;5.00;;;12.80;99.90;;;;;;5061805;28;20022;-88
2022/09/27 01:18:34;;;;;;;9.43;4.90;;;12.80;99.90;;;;;;5078874;28;20021;-88
2022/09/27 01:21:21;;;;;;;7.32;5.22;;;12.80;99.90;;;;;;5056250;28;20048;-87
2022/09/27 01:24:06;;;;;;;7.05;4.93;;;12.80;99.90;;;;;;5039841;28;20049;-86
2022/09/27 01:26:52;;;;;;;8.30;5.60;;;12.70;99.90;;;;;;5051913;28;20038;-88
2022/09/27 01:29:23;;;;;;;9.77;5.13;;;12.70;99.90;;;;;;5041766;28;20037;-86
2022/09/27 01:32:01;;;;;;;9.57;5.68;;;12.70;99.90;;;;;;5033924;28;20025;-87
2022/09/27 01:34:50;;;;;;;8.13;5.15;;;12.60;99.90;;;;;;5042286;28;20026;-86
2022/09/27 01:37:31;;;;;;;8.77;5.03;;;12.60;99.90;;;;;;5052630;28;20054;-87
2022/09/27 01:40:12;;;;;;;7.90;4.70;;;12.60;99.90;;;;;;5039235;28;20029;-85
2022/09/27 01:43:04;;;;;;;7.93;4.75;;;12.60;99.90;;;;;;5038446;28;20078;-86
2022/09/27 01:45:40;;;;;;;8.00;5.35;;;12.50;99.90;;;;;;5032853;28;20033;-85
2022/09/27 01:48:26;;;;;;;7.05;4.88;;;12.50;99.90;;;;;;5049160;28;20025;-86
2022/09/27 01:51:22;;;;;;;9.25;5.25;;;12.50;99.90;;;;;;5048119;28;20036;-86
2022/09/27 01:53:52;;;;;;;8.43;5.28;;;12.50;99.90;;;;;;5038166;28;20018;-85
2022/09/27 01:56:34;;;;;;;7.78;4.95;;;12.40;99.90;;;;;;5039021;28;20052;-86
2022/09/27 01:59:24;;;;;;;9.00;5.38;;;12.40;99.90;;;;;;5021912;28;20026;-84
2022/09/27 02:02:08;;;;;;;12.55;5.30;;;12.40;99.90;;;;;;5057039;28;20026;-84
2022/09/27 02:04:57;;;;;;;7.40;5.07;;;12.40;99.90;;;;;;5056538;28;20099;-85
2022/09/27 02:07:29;;;;;;;9.93;5.18;;;12.40;99.90;;;;;;5038534;28;20037;-84
2022/09/27 02:10:00;;;;;;;9.95;5.10;;;12.40;99.90;;;;;;5057136;28;20041;-85
2022/09/27 02:12:48;;;;;;;8.55;5.10;;;12.40;99.90;;;;;;5062257;28;20076;-86
2022/09/27 02:15:15;;;;;;;8.00;5.18;;;12.40;99.90;;;;;;5043078;28;20021;-86
2022/09/27 02:18:15;;;;;;;10.85;4.63;;;12.40;99.90;;;;;;5068019;28;20270;-85
2022/09/27 02:20:49;;;;;;;12.05;4.95;;;12.40;99.90;;;;;;5047099;28;20043;-87
2022/09/27 02:23:50;;;;;;;6.53;5.07;;;12.40;99.90;;;;;;5029700;28;20021;-86
2022/09/27 02:26:26;;;;;;;8.00;5.20;;;12.40;99.90;;;;;;5054182;28;20019;-87
2022/09/27 02:29:02;;;;;;;7.03;5.20;;;12.40;99.90;;;;;;5050286;28;20076;-86
2022/09/27 02:31:35;;;;;;;10.88;4.72;;;12.40;99.90;;;;;;5056874;28;20006;-87
2022/09/27 02:34:17;;;;;;;9.57;5.30;;;12.40;99.90;;;;;;5044598;28;20021;-85
2022/09/27 02:36:44;;;;;;;9.85;5.57;;;12.40;99.90;;;;;;5046125;28;20089;-88
2022/09/27 02:39:10;;;;;;;9.20;5.53;;;12.50;99.90;;;;;;5065717;28;20473;-85
2022/09/27 02:41:36;;;;;;;13.05;5.15;;;12.50;99.90;;;;;;5057110;28;20021;-85
2022/09/27 02:44:07;;;;;;;7.68;5.30;;;12.50;99.90;;;;;;5057753;28;20044;-87
2022/09/27 02:46:42;;;;;;;9.25;5.82;;;12.50;99.90;;;;;;5028284;28;20025;-84
2022/09/27 02:49:14;;;;;;;8.90;5.18;;;12.50;99.90;;;;;;5042519;28;20096;-88
2022/09/27 02:51:52;;;;;;;10.27;5.30;;;12.50;99.90;;;;;;5032766;28;20018;-88
2022/09/27 02:54:51;;;;;;;10.98;4.97;;;12.60;99.90;;;;;;5057946;28;20022;-86
2022/09/27 02:57:51;;;;;;;6.47;4.80;;;12.60;99.90;;;;;;5052059;28;20028;-86
2022/09/27 03:00:56;;;;;;;7.82;4.72;;;12.60;99.90;;;;;;5057694;28;20005;-88
2022/09/27 03:04:16;;;;;;;7.95;5.00;;;12.60;99.90;;;;;;5020350;28;20045;-85
2022/09/27 03:06:45;;;;;;;6.53;4.55;;;12.60;99.90;;;;;;5014588;28;20033;-84
2022/09/27 03:09:28;;;;;;;6.70;4.72;;;12.60;99.90;;;;;;5032473;28;20042;-84
2022/09/27 03:11:54;;;;;;;7.35;4.50;;;12.60;99.90;;;;;;5066190;28;20025;-83
2022/09/27 03:14:20;;;;;;;7.45;5.30;;;12.60;99.90;;;;;;5068970;28;20016;-81
2022/09/27 03:17:04;;;;;;;6.70;4.68;;;12.60;99.90;;;;;;5076639;28;20029;-81
2022/09/27 03:19:50;;;;;;;6.95;4.93;;;12.60;99.90;;;;;;5066318;28;20029;-82
2022/09/27 03:22:35;;;;;;;12.38;5.20;;;12.60;99.90;;;;;;5068847;28;20032;-79
2022/09/27 03:25:01;;;;;;;8.52;5.03;;;12.60;99.90;;;;;;5048014;28;20030;-83
2022/09/27 03:27:27;;;;;;;6.80;4.47;;;12.60;99.90;;;;;;5054520;28;20029;-85
2022/09/27 03:29:53;;;;;;;10.95;5.07;;;12.60;99.90;;;;;;5035570;28;20037;-83
2022/09/27 03:32:19;;;;;;;7.50;4.25;;;12.70;99.90;;;;;;5065536;28;20044;-84
2022/09/27 03:34:58;;;;;;;9.93;5.65;;;12.70;99.90;;;;;;5063145;28;20059;-85
2022/09/27 03:37:25;;;;;;;7.60;4.93;;;12.70;99.90;;;;;;5064850;28;20029;-85
2022/09/27 03:39:51;;;;;;;8.98;5.38;;;12.70;99.90;;;;;;5058152;28;20018;-86
2022/09/27 03:42:17;;;;;;;8.50;5.82;;;12.70;99.90;;;;;;5057805;28;20051;-83
2022/09/27 03:44:50;;;;;;;11.32;6.53;;;12.60;99.90;;;;;;5065468;28;20032;-84
2022/09/27 03:47:16;;;;;;;12.32;6.00;;;12.60;99.90;;;;;;5043364;28;20029;-85
2022/09/27 03:49:42;;;;;;;15.65;6.47;;;12.60;99.90;;;;;;5043684;28;20030;-86
2022/09/27 03:52:08;;;;;;;7.97;5.60;;;12.60;99.90;;;;;;5062864;28;20088;-82
2022/09/27 03:54:34;;;;;;;8.75;5.22;;;12.60;99.90;;;;;;5065998;28;20044;-84
2022/09/27 03:57:00;;;;;;;9.18;5.57;;;12.70;99.90;;;;;;5074592;28;20401;-85
2022/09/27 03:59:26;;;;;;;8.27;5.50;;;12.70;99.90;;;;;;5067876;28;20018;-84
2022/09/27 04:02:25;;;;;;;7.80;5.07;;;12.70;99.90;;;;;;5059203;28;20036;-83
2022/09/27 04:05:10;;;;;;;10.40;5.03;;;12.70;99.90;;;;;;5063426;28;20058;-83
2022/09/27 04:07:36;;;;;;;6.95;5.13;;;12.80;99.90;;;;;;5057842;28;20047;-84
2022/09/27 04:10:04;;;;;;;7.97;5.38;;;12.80;99.90;;;;;;5062055;28;20081;-83
2022/09/27 04:12:32;;;;;;;11.23;5.43;;;12.70;99.90;;;;;;5051426;28;20026;-83
2022/09/27 04:14:59;;;;;;;9.85;5.38;;;12.70;99.90;;;;;;5065594;28;20017;-85
2022/09/27 04:17:43;;;;;;;8.52;5.40;;;12.70;99.90;;;;;;5057777;28;20043;-83
2022/09/27 04:20:34;;;;;;;7.93;4.93;;;12.70;99.90;;;;;;5028278;28;20055;-85
2022/09/27 04:23:05;;;;;;;11.93;4.88;;;12.70;99.90;;;;;;5043956;28;20051;-82
2022/09/27 04:25:32;;;;;;;6.25;4.45;;;12.70;99.90;;;;;;5056932;28;20082;-83
2022/09/27 04:28:07;;;;;;;9.98;5.13;;;12.70;99.90;;;;;;5052550;28;20021;-85
2022/09/27 04:30:34;;;;;;;7.95;5.47;;;12.70;99.90;;;;;;5039659;28;20021;-84
2022/09/27 04:33:02;;;;;;;10.05;5.53;;;12.70;99.90;;;;;;5063243;28;20025;-85
2022/09/27 04:38:22;;;;;;;8.32;4.90;;;12.70;99.90;;;;;;5051713;28;19909;-84
2022/09/27 04:40:50;;;;;;;7.57;5.07;;;12.80;99.90;;;;;;5037074;28;20028;-85
2022/09/27 04:43:17;;;;;;;7.72;5.43;;;12.80;99.90;;;;;;5047514;28;20018;-81
2022/09/27 04:45:43;;;;;;;7.93;5.40;;;12.80;99.90;;;;;;5054241;28;20064;-84
2022/09/27 04:48:09;;;;;;;8.93;5.65;;;12.80;99.90;;;;;;5050885;28;20044;-83
2022/09/27 04:50:39;;;;;;;13.05;5.65;;;12.80;99.90;;;;;;5042374;28;20032;-84
2022/09/27 04:53:05;;;;;;;10.15;6.13;;;12.80;99.90;;;;;;5058454;28;20064;-83
2022/09/27 04:55:31;;;;;;;9.43;5.57;;;12.80;99.90;;;;;;5055319;28;20081;-85
2022/09/27 04:58:00;;;;;;;10.55;5.15;;;12.80;99.90;;;;;;5051301;28;20096;-84
2022/09/27 05:00:27;;;;;;;7.78;5.53;;;12.80;99.90;;;;;;5057313;28;20084;-84
2022/09/27 05:03:03;;;;;;;9.10;5.93;;;12.80;99.90;;;;;;5031817;28;20033;-84
2022/09/27 05:05:32;;;;;;;12.77;6.00;;;12.80;99.90;;;;;;5049527;28;20037;-85
2022/09/27 05:07:57;;;;;;;12.98;5.43;;;12.90;99.90;;;;;;5042829;28;20036;-86
2022/09/27 05:10:43;;;;;;;11.68;5.50;;;12.90;99.90;;;;;;5049129;28;20038;-84
2022/09/27 05:13:09;;;;;;;9.85;5.70;;;12.90;99.90;;;;;;5052270;28;20094;-85
2022/09/27 05:15:35;;;;;;;13.88;5.70;;;12.90;99.90;;;;;;5050520;28;20021;-83
2022/09/27 05:18:21;;;;;;;8.85;5.80;;;12.90;99.90;;;;;;5046116;28;20057;-83
2022/09/27 05:21:26;;;;;;;13.23;5.77;;;13.00;99.90;;;;;;5030054;28;20072;-84
2022/09/27 05:23:53;;;;;;;10.85;5.43;;;13.00;99.90;;;;;;5023501;28;20030;-86
2022/09/27 05:26:19;;;;;;;11.65;5.00;;;13.10;99.90;;;;;;5031799;28;20548;-85
2022/09/27 05:28:46;;;;;;;9.50;5.30;;;13.10;99.90;;;;;;5031270;28;20033;-86
2022/09/27 05:31:13;;;;;;;9.63;5.03;;;13.20;99.90;;;;;;5028192;28;20026;-86
2022/09/27 05:33:40;;;;;;;12.25;5.78;;;13.20;99.90;;;;;;5047103;28;20052;-86
2022/09/27 05:36:15;;;;;;;11.10;6.20;;;13.30;99.90;;;;;;5039940;28;20037;-85
2022/09/27 05:38:42;;;;;;;11.40;5.82;;;13.20;99.90;;;;;;5037726;28;20486;-85
2022/09/27 05:41:09;;;;;;;13.32;5.55;;;13.30;99.90;;;;;;5062150;28;20025;-85
2022/09/27 05:43:35;;;;;;;17.23;6.80;;;13.30;99.90;;;;;;5056975;28;20092;-83
2022/09/27 05:46:04;;;;;;;11.55;6.60;;;13.30;99.90;;;;;;5054642;28;20037;-84
2022/09/27 05:48:31;;;;;;;15.77;7.35;;;13.40;99.90;;;;;;5040131;28;20018;-86
2022/09/27 05:51:06;;;;;;;12.98;8.20;;;13.40;99.90;;;;;;5023480;28;20029;-84
2022/09/27 05:53:35;;;;;;;10.70;7.15;;;13.50;99.90;;;;;;5050994;28;20112;-82
2022/09/27 05:56:04;;;;;;;12.55;6.65;;;13.50;99.90;;;;;;5045451;28;20041;-83
2022/09/27 05:58:50;;;;;;;12.65;6.55;;;13.50;99.90;;;;;;5044738;28;20037;-82
2022/09/27 06:01:18;;;;;;;11.80;7.30;;;13.60;99.90;;;;;;5019743;28;20021;-82
2022/09/27 06:04:10;;;;;;;14.35;6.63;;;13.70;99.90;;;;;;5030844;28;20036;-83
2022/09/27 06:07:10;;;;;;;13.55;7.03;;;13.70;99.90;;;;;;5024662;28;20036;-85
2022/09/27 06:09:36;;;;;;;12.07;6.15;;;13.70;99.90;;;;;;5054308;28;20021;-85
2022/09/27 06:12:02;;;;;;;17.58;5.97;;;13.70;99.90;;;;;;5050357;28;20017;-84
2022/09/27 06:14:30;;;;;;;14.50;7.05;;;13.70;99.90;;;;;;5050126;28;20080;-83
2022/09/27 06:17:04;;;;;;;16.20;5.83;;;13.80;99.90;;;;;;5046367;28;20083;-83
2022/09/27 06:19:34;;;;;;;13.10;6.30;;;13.80;99.90;;;;;;5047988;28;20017;-83
2022/09/27 06:22:00;;;;;;;14.00;6.43;;;13.80;99.90;;;;;;5048149;28;20037;-84
2022/09/27 06:24:34;;;;;;;16.83;7.07;;;13.80;99.90;;;;;;5050951;28;20084;-81
2022/09/27 06:27:06;;;;;;;19.35;8.13;;;13.90;99.90;;;;;;5032642;28;20022;-82
2022/09/27 06:29:45;;;;;;;17.65;7.97;;;13.90;99.90;;;;;;5040457;28;20017;-84
2022/09/27 06:32:21;;;;;;;24.85;7.68;;;13.90;99.90;;;;;;5036585;28;20044;-83
2022/09/27 06:34:54;;;;;;;20.63;7.13;;;14.00;99.90;;;;;;5027583;28;20120;-84
2022/09/27 06:37:25;;;;;;;21.85;6.80;;;14.00;99.90;;;;;;5043773;28;20025;-85
2022/09/27 06:39:52;;;;;;;19.48;7.82;;;14.00;99.90;;;;;;5039634;28;20056;-86
2022/09/27 06:42:39;;;;;;;18.85;6.95;;;14.10;99.90;;;;;;5041741;28;20036;-86
2022/09/27 06:45:16;;;;;;;13.40;6.82;;;14.10;99.90;;;;;;5025959;28;20387;-83
2022/09/27 06:48:02;;;;;;;15.77;7.30;;;14.10;99.90;;;;;;5041346;28;20056;-85
2022/09/27 06:50:39;;;;;;;15.18;7.10;;;14.20;99.90;;;;;;5041573;28;20103;-84
2022/09/27 06:53:09;;;;;;;15.68;7.43;;;14.20;99.90;;;;;;5022722;28;20164;-85
2022/09/27 06:55:36;;;;;;;18.55;8.77;;;14.30;99.90;;;;;;5021627;28;20037;-83
2022/09/27 07:01:06;;;;;;;13.57;8.25;;;14.40;99.90;;;;;;5041507;28;20448;-85
2022/09/27 07:03:51;;;;;;;20.23;8.40;;;14.40;99.90;;;;;;5075845;22;20415;-80
2022/09/27 07:06:45;;;;;;;12.67;8.47;;;14.40;99.90;;;;;;5041777;28;20093;-80
2022/09/27 07:09:37;;;;;;;15.77;8.93;;;14.40;99.90;;;;;;5057266;28;20775;-81
2022/09/27 07:12:05;;;;;;;17.23;8.13;;;14.30;99.90;;;;;;5036363;28;20051;-81
2022/09/27 07:14:32;;;;;;;17.02;8.45;;;14.30;99.90;;;;;;5035765;28;20024;-81
2022/09/27 07:16:58;;;;;;;18.55;8.82;;;14.30;99.90;;;;;;5016455;28;20112;-79
2022/09/27 07:19:26;;;;;;;12.55;7.88;;;14.30;99.90;;;;;;5040998;28;20021;-79
2022/09/27 07:21:52;;;;;;;17.65;8.93;;;14.30;99.90;;;;;;5037601;28;20040;-80
2022/09/27 07:24:17;;;;;;;16.80;9.25;;;14.40;99.90;;;;;;5055761;28;20025;-79
2022/09/27 07:26:44;;;;;;;15.05;8.55;;;14.40;99.90;;;;;;5030357;28;20029;-80
2022/09/27 07:29:11;;;;;;;18.23;8.95;;;14.40;99.90;;;;;;5038079;28;20021;-79
2022/09/27 07:31:41;;;;;;;17.75;9.27;;;14.50;99.90;;;;;;5051242;28;20078;-80
2022/09/27 07:34:08;;;;;;;11.40;8.10;;;14.50;99.90;;;;;;5034131;28;20029;-81
2022/09/27 07:36:34;;;;;;;19.75;8.93;;;14.60;99.90;;;;;;5029796;28;20108;-80
2022/09/27 07:39:00;;;;;;;19.58;9.40;;;14.60;99.90;;;;;;5053498;28;20035;-81
2022/09/27 07:41:26;;;;;;;16.20;9.88;;;14.60;99.90;;;;;;5053900;28;20025;-80
2022/09/27 07:43:53;;;;;;;13.60;9.27;;;14.50;99.90;;;;;;5055070;28;20052;-80
2022/09/27 07:46:20;;;;;;;19.90;11.35;;;14.50;99.90;;;;;;5019680;28;20024;-79
2022/09/27 07:49:15;;;;;;;16.27;10.38;;;14.50;99.90;;;;;;5036991;28;20040;-79
2022/09/27 07:51:56;;;;;;;17.88;10.07;;;14.50;99.90;;;;;;5043205;28;20032;-80
2022/09/27 07:54:46;;;;;;;14.35;8.95;;;14.50;99.90;;;;;;5026779;28;20055;-81
2022/09/27 07:57:26;;;;;;;16.77;10.05;;;14.60;99.90;;;;;;5061011;28;20108;-80
2022/09/27 07:59:53;;;;;;;17.23;9.90;;;14.60;99.90;;;;;;5044975;28;20175;-81
2022/09/27 08:02:20;;;;;;;19.67;10.07;;;14.50;99.90;;;;;;5040504;28;20091;-80
2022/09/27 08:04:48;;;;;;;21.17;10.63;;;14.60;99.90;;;;;;5045843;28;20025;-78
2022/09/27 08:07:15;;;;;;;21.65;10.85;;;14.60;99.90;;;;;;5047914;28;20113;-81
2022/09/27 08:09:44;;;;;;;17.75;10.05;;;14.60;99.90;;;;;;5049151;28;20059;-79
2022/09/27 08:12:09;;;;;;;20.52;10.52;;;14.60;99.90;;;;;;5050021;28;20021;-78
2022/09/27 08:14:35;;;;;;;21.85;10.70;;;14.60;99.90;;;;;;5067319;28;20036;-79
2022/09/27 08:17:01;;;;;;;17.05;10.52;;;14.50;99.90;;;;;;5045961;28;20469;-81
2022/09/27 08:19:28;;;;;;;18.63;9.80;;;14.50;99.90;;;;;;5059102;28;20111;-79
2022/09/27 08:22:07;;;;;;;15.85;9.77;;;14.50;99.90;;;;;;5044401;28;20097;-79
2022/09/27 08:25:01;;;;;;;;;;;14.40;99.90;;;;;;5051582;28;20043;-79
2022/09/27 08:28:02;;;;;;;11.10;7.35;;;14.30;99.90;;;;;;5042906;28;20161;-80
2022/09/27 08:30:51;;;;;;;13.35;8.10;;;14.10;99.90;;;;;;5047822;28;20135;-81
2022/09/27 08:33:18;;;;;;;11.35;6.88;;;13.90;99.90;;;;;;5018848;28;20025;-80
2022/09/27 08:35:44;;;;;;;15.82;8.40;;;13.80;99.90;;;;;;5040095;28;20506;-78
2022/09/27 08:38:12;;;;;;;17.77;8.63;;;13.70;99.90;;;;;;5069992;28;20025;-78
2022/09/27 08:41:00;;;;;;;16.73;7.40;;;13.60;99.90;;;;;;5036467;28;20025;-78
2022/09/27 08:43:35;;;;;;;10.57;5.28;;;13.50;99.90;;;;;;5034111;28;20022;-79
2022/09/27 08:46:23;;;;;;;6.65;4.57;;;13.40;99.90;;;;;;5033939;28;20558;-80
2022/09/27 08:48:53;;;;;;;10.98;4.38;;;13.30;99.90;;;;;;5051512;28;20021;-80
2022/09/27 08:51:25;;;;;;;6.53;4.00;;;13.20;99.90;;;;;;5061169;28;20029;-79
2022/09/27 08:54:06;;;;;;;7.35;3.53;;;13.20;99.90;;;;;;5026569;28;20105;-80
2022/09/27 08:56:33;;;;;;;8.38;3.65;;;13.10;99.90;;;;;;5039164;28;20025;-79
2022/09/27 08:59:06;;;;;;;8.07;3.83;;;13.10;99.90;;;;;;5037623;28;20056;-80
2022/09/27 09:01:34;;;;;;;6.00;3.50;;;13.10;99.90;;;;;;5037310;28;20112;-80
2022/09/27 09:04:10;;;;;;;5.32;3.28;;;13.00;99.90;;;;;;5036954;28;20029;-79
2022/09/27 09:06:58;;;;;;;5.07;3.50;;;13.00;99.90;;;;;;5038223;28;20025;-80
2022/09/27 09:09:52;;;;;;;7.18;3.65;;;13.10;99.90;;;;;;5058440;28;20029;-79
2022/09/27 09:12:46;;;;;;;6.38;4.30;;;13.20;99.90;;;;;;5034574;28;20078;-79
2022/09/27 09:15:24;;;;;;;8.45;3.60;;;13.40;99.90;;;;;;5021048;28;20024;-79
2022/09/27 09:18:23;;;;;;;4.65;3.50;;;13.50;99.90;;;;;;5035600;28;20025;-80
2022/09/27 09:21:18;;;;;;;5.00;3.13;;;13.70;99.90;;;;;;5043696;28;20035;-79
2022/09/27 09:24:15;;;;;;;6.22;3.05;;;13.70;99.90;;;;;;5041742;28;20037;-80
2022/09/27 09:27:01;;;;;;;5.22;2.70;;;13.80;99.90;;;;;;5039072;28;20206;-83
2022/09/27 09:29:51;;;;;;;5.57;3.15;;;14.00;99.90;;;;;;5022906;28;21082;-84
2022/09/27 09:32:26;;;;;;;5.43;3.15;;;14.10;99.90;;;;;;5039812;28;20666;-86
2022/09/27 09:35:06;;;;;;;5.25;2.85;;;14.10;99.90;;;;;;5058432;28;20043;-86
2022/09/27 09:37:37;;;;;;;3.80;2.42;;;14.10;99.90;;;;;;5057686;28;20105;-84
2022/09/27 09:40:23;;;;;;;3.22;2.70;;;14.10;99.90;;;;;;5042955;28;20020;-85
2022/09/27 09:43:08;;;;;;;5.20;2.15;;;14.00;99.90;;;;;;5053419;28;20052;-85
2022/09/27 09:45:40;;;;;;;2.58;2.15;;;13.90;99.90;;;;;;5051323;28;20044;-84
2022/09/27 09:48:38;;;;;;;3.17;2.17;;;13.90;99.90;;;;;;5054689;28;20021;-82
2022/09/27 09:51:09;;;;;;;3.10;2.25;;;14.00;99.90;;;;;;5036793;28;20577;-82
2022/09/27 09:53:44;;;;;;;2.10;1.55;;;14.10;99.90;;;;;;5040188;28;20033;-82
2022/09/27 09:56:26;;;;;;;2.67;2.03;;;14.10;99.90;;;;;;5023207;28;20033;-81
2022/09/27 09:58:58;;;;;;;3.72;2.22;;;14.20;99.90;;;;;;5039368;28;20037;-79
2022/09/27 10:01:37;;;;;;;5.90;2.15;;;14.20;99.90;;;;;;5039534;28;20358;-79
2022/09/27 10:04:03;;;;;;;6.57;2.40;;;14.30;99.90;;;;;;5042705;28;20029;-80
2022/09/27 10:06:30;;;;;;;3.60;2.40;;;14.40;99.90;;;;;;5053892;28;20024;-79
2022/09/27 10:08:59;;;;;;;9.73;2.20;;;14.70;99.90;;;;;;5046118;28;20033;-80
2022/09/27 10:11:44;;;;;;;4.47;2.38;;;15.00;99.90;;;;;;5035226;28;20061;-78
2022/09/27 10:14:28;;;;;;;;;;;15.20;99.90;;;;;;5036623;28;20104;-79
2022/09/27 10:17:03;;;;;;;13.02;3.05;;;15.50;99.90;;;;;;5027709;28;19955;-79
2022/09/27 10:19:32;;;;;;;2.03;1.80;;;15.80;99.90;;;;;;5044082;28;20025;-78
2022/09/27 10:22:11;;;;;;;3.28;2.08;;;16.20;99.90;;;;;;5043703;28;20029;-79
2022/09/27 10:24:55;;;;;;;6.30;2.08;;;16.70;99.90;;;;;;5041599;28;20071;-80
2022/09/27 10:27:54;;;;;;;4.22;2.20;;;17.00;99.90;;;;;;5043540;28;20103;-80
2022/09/27 10:30:33;;;;;;;3.28;2.38;;;17.30;99.90;;;;;;5031382;28;20526;-79
2022/09/27 10:33:15;;;;;;;5.53;2.08;;;17.50;99.90;;;;;;5039025;28;20021;-79
2022/09/27 10:35:49;;;;;;;3.30;2.22;;;17.30;99.90;;;;;;5042120;28;20082;-79
2022/09/27 10:38:26;;;;;;;3.22;2.45;;;17.50;99.90;;;;;;5030711;28;20108;-79
2022/09/27 10:41:36;;;;;;;3.80;2.33;;;17.30;99.90;;;;;;5020021;28;20035;-79
2022/09/27 10:44:16;;;;;;;3.30;2.53;;;17.40;99.90;;;;;;5000945;28;20026;-79
2022/09/27 10:47:07;;;;;;;3.63;2.40;;;17.50;99.90;;;;;;5038969;28;20067;-80
2022/09/27 10:49:51;;;;;;;6.28;2.50;;;17.80;99.90;;;;;;5045064;28;20488;-79
2022/09/27 10:52:33;;;;;;;7.72;3.80;;;18.00;99.90;;;;;;5048793;28;20219;-78
2022/09/27 10:54:59;;;;;;;5.28;3.47;;;18.10;99.90;;;;;;5032830;28;20033;-79
2022/09/27 10:57:29;;;;;;;2.78;1.92;;;18.40;99.90;;;;;;5050887;28;20033;-81
2022/09/27 11:00:07;;;;;;;3.08;2.00;;;18.70;99.90;;;;;;5047088;28;20029;-79
2022/09/27 11:02:38;;;;;;;5.03;2.40;;;18.70;99.90;;;;;;5059656;28;20033;-80
2022/09/27 11:05:33;;;;;;;4.88;1.58;;;18.80;99.90;;;;;;5037315;28;20470;-83
2022/09/27 11:08:02;;;;;;;3.60;1.90;;;18.50;99.90;;;;;;5061987;28;20453;-80
2022/09/27 11:11:01;;;;;;;8.68;2.10;;;18.20;99.90;;;;;;5036619;28;20397;-81
2022/09/27 11:13:31;;;;;;;3.65;1.33;;;18.00;99.90;;;;;;5040247;28;20056;-79
2022/09/27 11:16:16;;;;;;;2.38;1.55;;;17.60;99.90;;;;;;5046520;28;20036;-82
2022/09/27 11:18:52;;;;;;;3.10;1.30;;;17.20;99.90;;;;;;5050794;28;20456;-78
2022/09/27 11:21:18;;;;;;;2.10;1.50;;;17.20;99.90;;;;;;5044381;28;20025;-80
2022/09/27 11:24:03;;;;;;;2.65;1.30;;;16.90;99.90;;;;;;5040848;28;20366;-81
2022/09/27 11:26:40;;;;;;;2.70;1.50;;;16.80;99.90;;;;;;5038016;28;20025;-79
2022/09/27 11:29:24;;;;;;;3.08;1.17;;;16.80;99.90;;;;;;5056774;28;20188;-81
2022/09/27 11:32:22;;;;;;;3.90;1.55;;;16.80;99.90;;;;;;5049509;28;20037;-81
2022/09/27 11:34:56;;;;;;;3.00;1.58;;;16.70;99.90;;;;;;5046373;28;20029;-80
2022/09/27 11:37:40;;;;;;;4.38;1.80;;;16.60;99.90;;;;;;5040806;28;20017;-80
2022/09/27 11:41:05;;;;;;;7.97;2.80;;;16.60;99.90;;;;;;5042355;28;20393;-84
2022/09/27 11:43:42;;;;;;;1.90;1.50;;;16.70;99.90;;;;;;4988197;28;20051;-80
2022/09/27 11:46:29;;;;;;;5.10;1.40;;;16.70;99.90;;;;;;5068134;28;20044;-78
2022/09/27 11:49:06;;;;;;;2.17;1.00;;;16.70;99.90;;;;;;5057974;28;20050;-78
2022/09/27 11:52:02;;;;;;;4.35;1.10;;;16.70;99.90;;;;;;5067302;28;20032;-80
2022/09/27 11:54:47;;;;;;;5.38;1.30;;;16.40;99.90;;;;;;5053124;28;20125;-78
2022/09/27 11:57:33;;;;;;;4.20;1.17;;;16.30;99.90;;;;;;5071258;28;20029;-76
2022/09/27 12:00:10;;;;;;;3.00;1.50;;;16.30;99.90;;;;;;5058191;28;20072;-77
2022/09/27 12:03:26;;;;;;;1.75;1.08;;;16.20;99.90;;;;;;5052750;28;20077;-78
2022/09/27 12:06:20;;;;;;;4.78;1.30;;;16.30;99.90;;;;;;5042771;28;20152;-79
2022/09/27 12:09:04;;;;;;;6.53;1.52;;;16.30;99.90;;;;;;5039034;28;20047;-77
2022/09/27 12:11:39;;;;;;;4.05;1.13;;;16.20;99.90;;;;;;5038409;28;20033;-80
2022/09/27 12:14:30;;;;;;;2.75;1.13;;;16.40;99.90;;;;;;5039276;28;20032;-79
2022/09/27 12:17:01;;;;;;;4.63;2.95;;;16.40;99.90;;;;;;5041218;28;20108;-80
2022/09/27 12:19:37;;;;;;;4.25;1.27;;;16.40;99.90;;;;;;5039246;28;20175;-79
2022/09/27 12:22:18;;;;;;;4.32;1.90;;;16.40;99.90;;;;;;5056847;28;20032;-81
2022/09/27 12:24:46;;;;;;;4.63;1.80;;;16.40;99.90;;;;;;5041805;28;20020;-79
2022/09/27 12:27:45;;;;;;;3.25;1.63;;;16.50;99.90;;;;;;5044051;28;20021;-79
2022/09/27 12:30:16;;;;;;;4.05;1.63;;;16.80;99.90;;;;;;5054468;28;20025;-78
2022/09/27 12:33:09;;;;;;;1.88;1.20;;;16.80;99.90;;;;;;5050804;28;20512;-80
2022/09/27 12:35:47;;;;;;;1.65;1.13;;;17.00;99.90;;;;;;5037690;28;20025;-79
2022/09/27 12:38:13;;;;;;;1.55;1.15;;;17.10;99.90;;;;;;5040190;28;20040;-79
2022/09/27 12:40:43;;;;;;;2.53;1.30;;;17.20;99.90;;;;;;5047937;28;20028;-79
2022/09/27 12:43:20;;;;;;;2.97;1.55;;;17.30;99.90;;;;;;5043563;28;20496;-79
2022/09/27 12:46:22;;;;;;;2.50;1.20;;;17.40;99.90;;;;;;5039723;28;20060;-79
2022/09/27 12:49:09;;;;;;;4.88;1.58;;;17.30;99.90;;;;;;5047589;28;20033;-77
2022/09/27 12:51:46;;;;;;;1.88;1.30;;;17.20;99.90;;;;;;5053105;28;20071;-80
2022/09/27 12:54:32;;;;;;;2.45;1.17;;;17.20;99.90;;;;;;5042452;28;20087;-80
2022/09/27 12:57:24;;;;;;;4.90;1.20;;;17.20;99.90;;;;;;5041450;28;20437;-78
2022/09/27 13:00:09;;;;;;;1.25;1.15;;;17.40;99.90;;;;;;5056260;28;20214;-78
2022/09/27 13:02:54;;;;;;;7.03;3.67;;;17.00;99.90;;;;;;5052829;28;20036;-79
2022/09/27 13:05:29;;;;;;;5.20;2.38;;;16.80;99.90;;;;;;5072823;22;20025;-80
2022/09/27 13:08:21;;;;;;;5.00;1.02;;;16.60;99.90;;;;;;5060731;28;20139;-80
2022/09/27 13:11:16;;;;;;;8.27;1.55;;;16.30;99.90;;;;;;5061721;28;20029;-88
2022/09/27 13:13:42;;;;;;;1.88;1.10;;;16.00;99.90;;;;;;5054465;28;20043;-81
2022/09/27 13:16:09;;;;;;;6.72;1.77;;;15.90;99.90;;;;;;5060783;28;20045;-84
2022/09/27 13:19:01;;;;;;;2.28;1.50;;;15.80;99.90;;;;;;5058331;28;20040;-82
2022/09/27 13:21:49;;;;;;;2.90;1.73;;;15.70;99.90;;;;;;5073193;28;20043;-81
2022/09/27 13:24:29;;;;;;;3.47;1.33;;;15.70;99.90;;;;;;5047209;28;20041;-82
2022/09/27 13:26:57;;;;;;;2.70;1.40;;;15.60;99.90;;;;;;5052869;28;20027;-83
2022/09/27 13:29:30;;;;;;;3.47;1.65;;;15.50;99.90;;;;;;5049717;28;20020;-82
2022/09/27 13:32:10;;;;;;;7.72;1.35;;;15.40;99.90;;;;;;5051231;28;20393;-84
2022/09/27 13:35:08;;;;;;;2.88;1.40;;;15.40;99.90;;;;;;5048671;28;20029;-82
2022/09/27 13:37:43;;;;;;;2.05;1.00;;;15.30;99.90;;;;;;5048296;28;20029;-83